Time;durP1;ratioP1;P1;durP2;ratioP2;P2;SDS_P1;SDS_P2;PMS_P1;PMS_P2;Temp;Humidity;BMP_temperature;BMP_pressure;BME280_temperature;BME280_humidity;BME280_pressure;Samples;Min_cycle;Max_cycle;Signal;HPM_P1;HPM_P2
2022/12/16 00:01:14;;;;;;;72.50;31.60;;;;;;;;;;5010528;28;20354;-68
2022/12/16 00:03:40;;;;;;;66.40;31.90;;;;;;;;;;5011459;28;20198;-68
2022/12/16 00:06:07;;;;;;;64.23;31.77;;;;;;;;;;5018113;28;20186;-69
2022/12/16 00:08:35;;;;;;;67.67;30.90;;;;;;;;;;5013825;28;20202;-68
2022/12/16 00:11:01;;;;;;;66.40;32.40;;;;;;;;;;5016572;28;20194;-68
2022/12/16 00:13:27;;;;;;;75.23;31.13;;;;;;;;;;5016934;28;20681;-69
2022/12/16 00:15:53;;;;;;;68.83;30.97;;;;;;;;;;5018258;28;20187;-68
2022/12/16 00:18:19;;;;;;;63.53;30.73;;;;;;;;;;5013711;28;20568;-68
2022/12/16 00:20:50;;;;;;;68.37;31.20;;;;;;;;;;5016332;28;20197;-68
2022/12/16 00:23:16;;;;;;;68.17;28.70;;;;;;;;;;5012498;28;20413;-68
2022/12/16 00:25:45;;;;;;;71.13;31.00;;;;;;;;;;5016168;28;20273;-68
2022/12/16 00:28:12;;;;;;;63.63;29.60;;;;;;;;;;5026482;28;20670;-68
2022/12/16 00:30:38;;;;;;;60.10;29.07;;;;;;;;;;5018167;28;20197;-69
2022/12/16 00:33:04;;;;;;;63.93;28.57;;;;;;;;;;5020719;28;20649;-67
2022/12/16 00:35:30;;;;;;;62.57;28.70;;;;;;;;;;5015007;28;20646;-69
2022/12/16 00:37:56;;;;;;;59.13;28.63;;;;;;;;;;5018393;28;20559;-69
2022/12/16 00:40:22;;;;;;;67.47;31.37;;;;;;;;;;5018787;28;20260;-69
2022/12/16 00:42:47;;;;;;;68.23;28.47;;;;;;;;;;5019085;28;20194;-69
2022/12/16 00:45:13;;;;;;;63.03;30.13;;;;;;;;;;5024815;28;20190;-70
2022/12/16 00:47:38;;;;;;;65.93;29.80;;;;;;;;;;5018877;28;20651;-69
2022/12/16 00:50:04;;;;;;;62.77;29.27;;;;;;;;;;5030015;28;20428;-67
2022/12/16 00:52:29;;;;;;;61.23;29.20;;;;;;;;;;5017202;28;20186;-70
2022/12/16 00:54:54;;;;;;;57.47;28.53;;;;;;;;;;5027521;28;20275;-70
2022/12/16 00:57:21;;;;;;;60.87;28.17;;;;;;;;;;5022940;28;20186;-68
2022/12/16 00:59:46;;;;;;;57.30;27.93;;;;;;;;;;5018099;28;20260;-68
2022/12/16 01:02:11;;;;;;;63.43;29.83;;;;;;;;;;5018586;28;20182;-68
2022/12/16 01:04:37;;;;;;;60.37;28.60;;;;;;;;;;5029358;28;20502;-68
2022/12/16 01:07:02;;;;;;;58.07;27.77;;;;;;;;;;5032086;28;20568;-68
2022/12/16 01:09:27;;;;;;;60.40;28.53;;;;;;;;;;5039501;28;20910;-68
2022/12/16 01:11:53;;;;;;;58.13;28.40;;;;;;;;;;5040446;28;20186;-70
2022/12/16 01:14:18;;;;;;;61.30;28.17;;;;;;;;;;5035108;28;20212;-68
2022/12/16 01:16:44;;;;;;;62.67;29.10;;;;;;;;;;5027166;28;20680;-68
2022/12/16 01:19:09;;;;;;;62.20;28.17;;;;;;;;;;5022019;28;20186;-69
2022/12/16 01:21:35;;;;;;;54.37;27.03;;;;;;;;;;5042416;28;20190;-69
2022/12/16 01:24:01;;;;;;;57.67;27.90;;;;;;;;;;5035320;28;20189;-69
2022/12/16 01:26:26;;;;;;;56.87;28.40;;;;;;;;;;5032739;28;20490;-69
2022/12/16 01:28:51;;;;;;;57.00;27.63;;;;;;;;;;5041211;28;20656;-69
2022/12/16 01:31:19;;;;;;;62.20;29.90;;;;;;;;;;5040566;28;20261;-69
2022/12/16 01:33:44;;;;;;;63.73;28.43;;;;;;;;;;5032697;28;20650;-69
2022/12/16 01:36:10;;;;;;;57.87;28.43;;;;;;;;;;5024859;28;20295;-69
2022/12/16 01:38:36;;;;;;;61.87;28.97;;;;;;;;;;5015073;28;20178;-68
2022/12/16 01:41:01;;;;;;;56.50;27.37;;;;;;;;;;5019702;28;20429;-69
2022/12/16 01:43:31;;;;;;;58.57;28.00;;;;;;;;;;5026266;28;20267;-69
2022/12/16 01:46:06;;;;;;;54.83;26.93;;;;;;;;;;5017782;28;20658;-69
2022/12/16 01:48:31;;;;;;;56.23;27.13;;;;;;;;;;5013384;28;20193;-69
2022/12/16 01:51:01;;;;;;;57.67;28.87;;;;;;;;;;5021826;28;20509;-70
2022/12/16 01:53:28;;;;;;;60.13;27.57;;;;;;;;;;5020937;28;20189;-69
2022/12/16 01:55:56;;;;;;;57.43;28.03;;;;;;;;;;5012851;28;20210;-69
2022/12/16 01:58:26;;;;;;;55.53;27.67;;;;;;;;;;5010822;28;20313;-69
2022/12/16 02:00:52;;;;;;;58.83;28.30;;;;;;;;;;5018931;28;20202;-69
2022/12/16 02:03:18;;;;;;;56.67;27.63;;;;;;;;;;5023982;28;20193;-69
2022/12/16 02:05:45;;;;;;;61.70;28.97;;;;;;;;;;5018496;28;20179;-68
2022/12/16 02:08:13;;;;;;;55.93;26.97;;;;;;;;;;5016634;28;20184;-69
2022/12/16 02:11:17;;;;;;;55.50;27.93;;;;;;;;;;5022619;28;20210;-68
2022/12/16 02:13:45;;;;;;;58.73;28.10;;;;;;;;;;5011060;28;20190;-69
2022/12/16 02:16:28;;;;;;;57.90;27.97;;;;;;;;;;5024479;28;20213;-69
2022/12/16 02:19:12;;;;;;;64.67;29.03;;;;;;;;;;5023976;28;20542;-69
2022/12/16 02:22:17;;;;;;;56.43;28.00;;;;;;;;;;5029496;28;20190;-69
2022/12/16 02:25:12;;;;;;;58.40;28.10;;;;;;;;;;5031918;28;20276;-69
2022/12/16 02:27:59;;;;;;;56.20;27.43;;;;;;;;;;5018770;28;20575;-68
2022/12/16 02:31:03;;;;;;;60.00;27.83;;;;;;;;;;5025325;28;20212;-68
2022/12/16 02:33:42;;;;;;;56.60;27.60;;;;;;;;;;5019372;28;20190;-69
2022/12/16 02:36:20;;;;;;;62.30;29.27;;;;;;;;;;5025361;28;20222;-69
2022/12/16 02:38:55;;;;;;;58.00;30.23;;;;;;;;;;5031654;28;20189;-69
2022/12/16 02:41:30;;;;;;;59.50;29.70;;;;;;;;;;5027560;28;20324;-68
2022/12/16 02:44:03;;;;;;;55.00;27.97;;;;;;;;;;5030754;28;20490;-69
2022/12/16 02:46:32;;;;;;;54.90;28.17;;;;;;;;;;5024094;28;20179;-69
2022/12/16 02:49:07;;;;;;;60.33;27.63;;;;;;;;;;5016120;28;20210;-69
2022/12/16 02:51:35;;;;;;;58.37;29.63;;;;;;;;;;5029960;28;20593;-69
2022/12/16 02:54:01;;;;;;;58.20;29.07;;;;;;;;;;5021387;28;20175;-69
2022/12/16 02:56:56;;;;;;;58.87;29.13;;;;;;;;;;5028460;28;20189;-69
2022/12/16 02:59:46;;;;;;;61.10;30.90;;;;;;;;;;5027637;28;20190;-69
2022/12/16 03:02:29;;;;;;;61.10;29.50;;;;;;;;;;5020993;28;20193;-69
2022/12/16 03:05:01;;;;;;;56.90;28.03;;;;;;;;;;5025488;28;20669;-69
2022/12/16 03:07:30;;;;;;;61.17;30.70;;;;;;;;;;5030016;28;20186;-69
2022/12/16 03:09:56;;;;;;;61.87;30.17;;;;;;;;;;5028393;28;20222;-69
2022/12/16 03:12:23;;;;;;;61.77;29.37;;;;;;;;;;5029672;28;20187;-69
2022/12/16 03:14:51;;;;;;;59.17;31.27;;;;;;;;;;5018081;28;20677;-69
2022/12/16 03:17:18;;;;;;;64.10;29.83;;;;;;;;;;5031347;28;20497;-69
2022/12/16 03:19:51;;;;;;;58.93;29.77;;;;;;;;;;5029931;28;20182;-70
2022/12/16 03:22:20;;;;;;;59.77;30.37;;;;;;;;;;5029822;28;20186;-69
2022/12/16 03:24:45;;;;;;;61.90;29.23;;;;;;;;;;5031407;28;20182;-69
2022/12/16 03:27:23;;;;;;;62.80;30.57;;;;;;;;;;5025756;28;20198;-69
2022/12/16 03:29:58;;;;;;;59.40;30.07;;;;;;;;;;5022434;28;20669;-69
2022/12/16 03:32:26;;;;;;;67.00;31.93;;;;;;;;;;5025769;28;20316;-68
2022/12/16 03:34:59;;;;;;;61.80;30.73;;;;;;;;;;5025391;28;20657;-69
2022/12/16 03:37:28;;;;;;;61.63;31.07;;;;;;;;;;5028774;28;20232;-69
2022/12/16 03:39:56;;;;;;;65.07;32.27;;;;;;;;;;5022172;28;20182;-69
2022/12/16 03:42:22;;;;;;;64.40;32.03;;;;;;;;;;5022691;28;20539;-69
2022/12/16 03:44:49;;;;;;;66.50;32.03;;;;;;;;;;5026887;28;20269;-68
2022/12/16 03:47:14;;;;;;;64.30;31.13;;;;;;;;;;5031585;28;20186;-68
2022/12/16 03:49:40;;;;;;;62.67;31.43;;;;;;;;;;5044766;28;20293;-69
2022/12/16 03:52:05;;;;;;;67.53;30.10;;;;;;;;;;5021527;28;20175;-69
2022/12/16 03:54:31;;;;;;;62.87;31.83;;;;;;;;;;5021202;28;20210;-69
2022/12/16 03:56:56;;;;;;;60.97;30.60;;;;;;;;;;5019333;28;20181;-68
2022/12/16 03:59:22;;;;;;;56.60;28.57;;;;;;;;;;5029221;28;20174;-68
2022/12/16 04:01:48;;;;;;;68.07;32.20;;;;;;;;;;5027826;28;20190;-69
2022/12/16 04:04:14;;;;;;;70.23;31.33;;;;;;;;;;5028839;28;20221;-69
2022/12/16 04:06:39;;;;;;;66.33;30.57;;;;;;;;;;5030879;28;20478;-69
2022/12/16 04:09:05;;;;;;;61.40;31.27;;;;;;;;;;5029144;28;20190;-68
2022/12/16 04:25:20;;;;;;;64.97;31.57;;;;;;;;;;5027773;28;20205;-68
2022/12/16 04:27:48;;;;;;;69.10;32.13;;;;;;;;;;5026829;28;20185;-69
2022/12/16 04:30:19;;;;;;;70.50;31.97;;;;;;;;;;5029602;28;20202;-68
